Time;durP1;ratioP1;P1;durP2;ratioP2;P2;SDS_P1;SDS_P2;PMS_P1;PMS_P2;Temp;Humidity;BMP_temperature;BMP_pressure;BME280_temperature;BME280_humidity;BME280_pressure;Samples;Min_cycle;Max_cycle;Signal;HPM_P1;HPM_P2
2022/03/31 00:00:37;;;;;;;26.50;7.38;;;;;;;;;;5014851;28;20030;-55
2022/03/31 00:03:08;;;;;;;30.23;7.55;;;;;;;;;;5014923;28;20030;-51
2022/03/31 00:05:34;;;;;;;22.98;6.75;;;;;;;;;;5014653;28;20061;-49
2022/03/31 00:08:02;;;;;;;29.08;7.18;;;;;;;;;;5014875;28;20018;-54
2022/03/31 00:10:30;;;;;;;24.67;6.82;;;;;;;;;;5014623;28;20033;-53
2022/03/31 00:12:57;;;;;;;25.20;7.88;;;;;;;;;;5014564;28;20034;-51
2022/03/31 00:15:24;;;;;;;31.73;8.90;;;;;;;;;;5014409;28;20023;-51
2022/03/31 00:17:50;;;;;;;30.58;8.07;;;;;;;;;;5014701;28;20029;-51
2022/03/31 00:20:16;;;;;;;25.50;7.32;;;;;;;;;;5014103;28;20356;-51
2022/03/31 00:22:43;;;;;;;17.90;5.68;;;;;;;;;;5014769;28;20422;-52
2022/03/31 00:25:11;;;;;;;31.30;8.02;;;;;;;;;;5014300;28;20022;-53
2022/03/31 00:27:37;;;;;;;27.60;6.90;;;;;;;;;;5014442;28;20044;-53
2022/03/31 00:30:05;;;;;;;20.40;7.22;;;;;;;;;;5014237;28;20041;-54
2022/03/31 00:32:31;;;;;;;24.08;6.93;;;;;;;;;;5014057;28;20053;-55
2022/03/31 00:34:57;;;;;;;20.08;5.60;;;;;;;;;;5014307;28;20025;-56
2022/03/31 00:37:23;;;;;;;22.45;5.30;;;;;;;;;;5014058;28;20104;-53
2022/03/31 00:39:49;;;;;;;21.52;6.22;;;;;;;;;;5014036;28;20025;-56
2022/03/31 00:42:16;;;;;;;19.92;4.53;;;;;;;;;;5014309;28;20061;-53
2022/03/31 00:44:43;;;;;;;17.65;6.88;;;;;;;;;;5014163;28;20018;-51
2022/03/31 00:47:09;;;;;;;27.50;8.27;;;;;;;;;;5013823;28;20517;-50
2022/03/31 00:49:36;;;;;;;34.10;9.73;;;;;;;;;;5013895;28;20030;-53
2022/03/31 00:52:02;;;;;;;29.13;8.57;;;;;;;;;;5014025;28;20030;-55
2022/03/31 00:54:30;;;;;;;34.30;9.00;;;;;;;;;;5013004;28;20121;-54
2022/03/31 00:56:57;;;;;;;25.08;8.05;;;;;;;;;;5014053;28;20030;-51
2022/03/31 00:59:24;;;;;;;27.42;8.90;;;;;;;;;;5013754;28;20026;-54
2022/03/31 01:01:51;;;;;;;25.52;6.53;;;;;;;;;;5013481;28;20021;-56
2022/03/31 01:04:17;;;;;;;18.67;5.38;;;;;;;;;;5014527;28;20450;-57
2022/03/31 01:06:44;;;;;;;20.73;5.90;;;;;;;;;;5013717;28;20053;-51
2022/03/31 01:09:11;;;;;;;22.92;7.00;;;;;;;;;;5013615;28;20032;-52
2022/03/31 01:11:38;;;;;;;23.55;7.70;;;;;;;;;;5013905;28;20065;-51
2022/03/31 01:14:05;;;;;;;21.27;6.65;;;;;;;;;;5013814;28;20033;-51
2022/03/31 01:16:31;;;;;;;27.05;7.53;;;;;;;;;;5013569;28;20022;-52
2022/03/31 01:18:57;;;;;;;27.92;7.75;;;;;;;;;;5014096;28;20352;-53
2022/03/31 01:21:23;;;;;;;28.42;7.57;;;;;;;;;;5013503;28;20030;-56
2022/03/31 01:23:54;;;;;;;22.20;6.38;;;;;;;;;;5013813;28;20499;-54
2022/03/31 01:26:21;;;;;;;19.40;5.20;;;;;;;;;;5015472;28;20026;-56
2022/03/31 01:28:47;;;;;;;20.02;6.28;;;;;;;;;;5017496;28;20313;-51
2022/03/31 01:31:13;;;;;;;17.65;5.93;;;;;;;;;;5017682;28;20030;-51
2022/03/31 01:33:43;;;;;;;18.40;6.05;;;;;;;;;;5017812;28;20026;-56
2022/03/31 01:36:09;;;;;;;24.90;5.90;;;;;;;;;;5017426;28;20367;-55
2022/03/31 01:38:36;;;;;;;15.65;5.93;;;;;;;;;;5018133;28;20382;-56
2022/03/31 01:41:02;;;;;;;20.75;5.55;;;;;;;;;;5017855;28;20022;-53
2022/03/31 01:43:28;;;;;;;21.00;5.78;;;;;;;;;;5017247;28;20030;-55
2022/03/31 01:45:55;;;;;;;14.02;4.43;;;;;;;;;;5017511;28;20022;-57
2022/03/31 01:48:21;;;;;;;18.10;4.32;;;;;;;;;;5017426;28;20091;-55
2022/03/31 01:50:47;;;;;;;13.93;4.35;;;;;;;;;;5016982;28;20374;-55
2022/03/31 01:53:18;;;;;;;11.52;4.15;;;;;;;;;;5017651;28;20080;-57
2022/03/31 01:55:45;;;;;;;18.42;4.10;;;;;;;;;;5017010;28;20032;-56
2022/03/31 01:58:11;;;;;;;25.45;7.57;;;;;;;;;;5016986;28;20030;-53
2022/03/31 02:00:38;;;;;;;23.30;8.68;;;;;;;;;;5017500;28;20068;-54
2022/03/31 02:03:04;;;;;;;25.83;8.63;;;;;;;;;;5017524;28;20406;-56
2022/03/31 02:05:31;;;;;;;30.80;8.18;;;;;;;;;;5015255;28;20654;-54
2022/03/31 02:07:57;;;;;;;27.95;8.52;;;;;;;;;;5015505;28;20060;-54
2022/03/31 02:10:27;;;;;;;30.15;8.73;;;;;;;;;;5016373;28;20026;-55
2022/03/31 02:12:54;;;;;;;23.20;7.25;;;;;;;;;;5016944;28;20034;-55
2022/03/31 02:15:21;;;;;;;23.63;6.90;;;;;;;;;;5017041;28;20022;-53
2022/03/31 02:17:48;;;;;;;27.15;7.05;;;;;;;;;;5016271;28;20030;-52
2022/03/31 02:20:14;;;;;;;26.70;7.22;;;;;;;;;;5016931;28;20030;-54
2022/03/31 02:22:40;;;;;;;22.55;5.07;;;;;;;;;;5016978;28;20105;-52
2022/03/31 02:25:08;;;;;;;19.40;5.78;;;;;;;;;;5016764;28;20099;-51
2022/03/31 02:27:35;;;;;;;17.40;5.53;;;;;;;;;;5016778;28;20034;-54
2022/03/31 02:30:02;;;;;;;25.08;5.82;;;;;;;;;;5016384;28;20479;-55
2022/03/31 02:32:28;;;;;;;20.65;5.97;;;;;;;;;;5015244;28;20091;-55
2022/03/31 02:34:54;;;;;;;20.17;5.10;;;;;;;;;;5016950;28;20032;-55
2022/03/31 02:37:20;;;;;;;19.15;4.28;;;;;;;;;;5017213;28;20109;-51
2022/03/31 02:39:47;;;;;;;22.23;5.03;;;;;;;;;;5015757;28;20026;-53
2022/03/31 02:42:13;;;;;;;19.25;4.60;;;;;;;;;;5016502;28;20044;-56
2022/03/31 02:44:39;;;;;;;13.75;4.25;;;;;;;;;;5016444;28;20057;-52
2022/03/31 02:47:05;;;;;;;11.45;3.80;;;;;;;;;;5015759;28;20026;-52
2022/03/31 02:49:32;;;;;;;17.17;4.32;;;;;;;;;;5016095;28;20041;-56
2022/03/31 02:51:58;;;;;;;22.45;4.55;;;;;;;;;;5016266;28;20022;-54
2022/03/31 02:57:09;;;;;;;22.45;5.40;;;;;;;;;;5016039;28;20033;-54
2022/03/31 02:59:35;;;;;;;21.77;5.28;;;;;;;;;;5015570;28;20014;-52
2022/03/31 03:02:01;;;;;;;22.33;5.13;;;;;;;;;;5016097;28;20025;-53
2022/03/31 03:04:27;;;;;;;20.45;5.32;;;;;;;;;;5016131;28;20050;-55
2022/03/31 03:06:54;;;;;;;20.80;5.28;;;;;;;;;;5015700;28;20363;-55
2022/03/31 03:09:20;;;;;;;21.00;5.20;;;;;;;;;;5015665;28;20025;-55
2022/03/31 03:11:46;;;;;;;20.65;5.13;;;;;;;;;;5015868;28;20025;-51
2022/03/31 03:14:13;;;;;;;20.10;6.00;;;;;;;;;;5015532;28;20021;-55
2022/03/31 03:16:40;;;;;;;22.17;4.68;;;;;;;;;;5016161;28;20129;-57
2022/03/31 03:19:07;;;;;;;17.50;5.00;;;;;;;;;;5015797;28;20105;-52
2022/03/31 03:21:34;;;;;;;17.58;4.45;;;;;;;;;;5015218;28;20041;-56
2022/03/31 03:24:01;;;;;;;19.98;4.93;;;;;;;;;;5015759;28;20021;-54
2022/03/31 03:26:28;;;;;;;18.08;4.55;;;;;;;;;;5015505;28;20026;-55
2022/03/31 03:28:54;;;;;;;21.20;4.38;;;;;;;;;;5015233;28;20036;-52
2022/03/31 03:31:20;;;;;;;18.17;4.35;;;;;;;;;;5015054;28;20118;-52
2022/03/31 03:33:47;;;;;;;12.98;3.30;;;;;;;;;;5015625;28;20040;-54
2022/03/31 03:36:19;;;;;;;13.20;3.22;;;;;;;;;;5015203;28;20017;-55
2022/03/31 03:38:45;;;;;;;12.30;3.08;;;;;;;;;;5015091;28;20089;-56
2022/03/31 03:41:12;;;;;;;18.77;5.53;;;;;;;;;;5014707;28;20034;-56
2022/03/31 03:43:42;;;;;;;13.65;3.35;;;;;;;;;;5015431;28;20041;-53
2022/03/31 03:46:08;;;;;;;18.67;4.13;;;;;;;;;;5014936;28;20019;-51
2022/03/31 03:48:35;;;;;;;15.35;3.53;;;;;;;;;;5014505;28;20072;-54
2022/03/31 03:51:01;;;;;;;16.15;4.18;;;;;;;;;;5014899;28;20026;-51
2022/03/31 03:53:27;;;;;;;17.17;3.53;;;;;;;;;;5015198;28;20026;-52
2022/03/31 03:55:53;;;;;;;18.58;5.30;;;;;;;;;;5014750;28;20026;-52
2022/03/31 03:58:20;;;;;;;17.27;3.47;;;;;;;;;;5014804;28;20030;-55
2022/03/31 04:00:46;;;;;;;14.15;3.15;;;;;;;;;;5014981;28;20028;-53
2022/03/31 04:03:12;;;;;;;10.20;2.60;;;;;;;;;;5014604;28;20026;-52
2022/03/31 04:05:38;;;;;;;10.50;2.55;;;;;;;;;;5015223;28;20048;-52
2022/03/31 04:08:05;;;;;;;14.70;2.17;;;;;;;;;;5014469;28;20021;-52
2022/03/31 04:10:33;;;;;;;12.73;2.60;;;;;;;;;;5017407;28;20038;-51
2022/03/31 04:13:00;;;;;;;12.73;2.80;;;;;;;;;;5014817;28;20061;-52
2022/03/31 04:15:27;;;;;;;16.08;3.60;;;;;;;;;;5014719;28;20033;-51
2022/03/31 04:17:54;;;;;;;12.88;5.32;;;;;;;;;;5014109;28;20026;-55
2022/03/31 04:20:21;;;;;;;38.25;12.18;;;;;;;;;;5014578;28;20030;-52
2022/03/31 04:22:47;;;;;;;26.75;12.65;;;;;;;;;;5014348;28;20374;-52
2022/03/31 04:25:14;;;;;;;26.25;9.43;;;;;;;;;;5014312;28;20116;-54
2022/03/31 04:27:40;;;;;;;25.80;8.65;;;;;;;;;;5019811;28;20017;-49
2022/03/31 04:30:10;;;;;;;27.17;7.18;;;;;;;;;;5030829;28;20053;-55
2022/03/31 04:32:37;;;;;;;46.00;18.40;;;;;;;;;;5022260;28;20032;-55
2022/03/31 04:35:04;;;;;;;50.10;18.95;;;;;;;;;;5031180;28;20429;-55
2022/03/31 04:37:30;;;;;;;28.85;12.40;;;;;;;;;;5033661;28;20029;-54
2022/03/31 04:39:56;;;;;;;44.25;17.08;;;;;;;;;;5033986;28;20025;-54
2022/03/31 04:42:23;;;;;;;39.95;15.95;;;;;;;;;;5034004;28;20036;-52
2022/03/31 04:44:49;;;;;;;26.13;10.68;;;;;;;;;;5033419;28;20021;-54
2022/03/31 04:47:16;;;;;;;26.05;7.13;;;;;;;;;;5033886;28;20017;-50
2022/03/31 04:49:42;;;;;;;14.18;6.40;;;;;;;;;;5024173;28;20033;-52
2022/03/31 04:52:08;;;;;;;25.15;9.30;;;;;;;;;;5031351;28;20367;-54
2022/03/31 04:54:34;;;;;;;28.83;9.60;;;;;;;;;;5033577;28;20033;-54
2022/03/31 04:57:01;;;;;;;26.60;8.48;;;;;;;;;;5033769;28;20026;-54
2022/03/31 04:59:27;;;;;;;24.58;9.40;;;;;;;;;;5033015;28;20026;-53
2022/03/31 05:01:53;;;;;;;23.70;6.00;;;;;;;;;;5033171;28;20114;-54
2022/03/31 05:04:19;;;;;;;23.10;5.50;;;;;;;;;;5033589;28;20080;-55
2022/03/31 05:06:46;;;;;;;25.77;5.18;;;;;;;;;;5031537;28;20022;-55
2022/03/31 05:09:12;;;;;;;18.95;4.97;;;;;;;;;;5031665;28;20048;-53
2022/03/31 05:11:45;;;;;;;33.83;6.85;;;;;;;;;;5032411;28;20026;-54
2022/03/31 05:14:12;;;;;;;19.65;6.90;;;;;;;;;;5032209;28;20080;-54
2022/03/31 05:16:38;;;;;;;25.40;6.05;;;;;;;;;;5031838;28;20022;-50
2022/03/31 05:19:04;;;;;;;22.83;7.15;;;;;;;;;;5031519;28;20109;-54
2022/03/31 05:21:30;;;;;;;21.40;7.43;;;;;;;;;;5032452;28;20025;-56
2022/03/31 05:23:57;;;;;;;33.65;13.82;;;;;;;;;;5033449;28;20033;-50
2022/03/31 05:26:23;;;;;;;43.35;13.77;;;;;;;;;;5033123;28;20026;-53
2022/03/31 05:28:49;;;;;;;33.45;13.30;;;;;;;;;;5033225;28;20023;-54
2022/03/31 05:31:15;;;;;;;25.98;8.98;;;;;;;;;;5033068;28;20034;-50
2022/03/31 05:33:41;;;;;;;20.17;8.35;;;;;;;;;;5033121;28;20029;-55
2022/03/31 05:36:07;;;;;;;36.03;10.35;;;;;;;;;;5033437;28;20076;-52
2022/03/31 05:38:34;;;;;;;31.98;10.75;;;;;;;;;;5033663;28;20046;-51
2022/03/31 05:41:00;;;;;;;39.78;15.55;;;;;;;;;;5033023;28;20044;-54
2022/03/31 05:43:26;;;;;;;46.28;17.55;;;;;;;;;;5031251;28;20028;-52
2022/03/31 05:45:52;;;;;;;48.13;18.50;;;;;;;;;;5032615;28;20101;-54
2022/03/31 05:48:19;;;;;;;34.05;15.80;;;;;;;;;;5033009;28;20017;-53
2022/03/31 05:50:45;;;;;;;34.08;13.07;;;;;;;;;;5033763;28;20175;-54
2022/03/31 05:53:13;;;;;;;34.40;11.23;;;;;;;;;;5031771;28;20056;-53
2022/03/31 05:55:40;;;;;;;34.67;10.80;;;;;;;;;;5031126;28;20025;-53
2022/03/31 05:58:07;;;;;;;24.45;10.32;;;;;;;;;;5030961;28;20026;-50
2022/03/31 06:00:33;;;;;;;28.95;10.02;;;;;;;;;;5031635;28;20107;-55
2022/03/31 06:02:59;;;;;;;30.50;9.73;;;;;;;;;;5032627;28;20053;-53
2022/03/31 06:05:26;;;;;;;29.83;9.32;;;;;;;;;;5032574;28;20053;-53
2022/03/31 06:07:52;;;;;;;30.55;9.40;;;;;;;;;;5033156;28;20078;-53
2022/03/31 06:10:19;;;;;;;31.48;8.63;;;;;;;;;;5032747;28;20029;-52
2022/03/31 06:12:45;;;;;;;35.05;8.57;;;;;;;;;;5035235;28;20096;-55
2022/03/31 06:15:12;;;;;;;52.33;23.92;;;;;;;;;;5036442;28;20025;-55
2022/03/31 06:17:40;;;;;;;47.67;15.43;;;;;;;;;;5037245;28;20369;-53
2022/03/31 06:20:07;;;;;;;86.50;51.75;;;;;;;;;;5036615;28;20079;-56
2022/03/31 06:22:34;;;;;;;65.65;31.05;;;;;;;;;;5036299;28;20037;-53
2022/03/31 06:25:00;;;;;;;54.75;27.38;;;;;;;;;;5036505;28;20024;-53
2022/03/31 06:27:27;;;;;;;79.80;38.05;;;;;;;;;;5036503;28;20024;-55
2022/03/31 06:29:53;;;;;;;50.17;21.33;;;;;;;;;;5036586;28;20101;-54
2022/03/31 06:32:19;;;;;;;60.65;21.77;;;;;;;;;;5036084;28;20533;-54
2022/03/31 06:34:45;;;;;;;51.63;21.00;;;;;;;;;;5036333;28;20035;-53
2022/03/31 06:37:13;;;;;;;60.78;22.80;;;;;;;;;;5035746;28;20025;-56
2022/03/31 06:39:39;;;;;;;125.47;62.33;;;;;;;;;;5051660;28;20028;-55
2022/03/31 06:42:05;;;;;;;114.35;51.15;;;;;;;;;;5036308;28;20021;-55
2022/03/31 06:44:32;;;;;;;79.95;33.45;;;;;;;;;;5035964;28;20014;-50
2022/03/31 06:46:59;;;;;;;64.63;22.48;;;;;;;;;;5036103;28;20022;-51
2022/03/31 06:49:25;;;;;;;42.85;14.68;;;;;;;;;;5036401;28;20030;-50
2022/03/31 06:51:51;;;;;;;48.95;16.95;;;;;;;;;;5035715;28;20029;-55
2022/03/31 06:54:21;;;;;;;40.83;15.05;;;;;;;;;;5035979;28;20029;-54
2022/03/31 06:56:49;;;;;;;40.72;12.43;;;;;;;;;;5035811;28;20029;-54
2022/03/31 06:59:15;;;;;;;40.47;13.48;;;;;;;;;;5035440;28;20113;-53
2022/03/31 07:01:41;;;;;;;56.22;14.40;;;;;;;;;;5035526;28;20025;-51
2022/03/31 07:04:07;;;;;;;49.28;15.70;;;;;;;;;;5035672;28;20045;-52
2022/03/31 07:06:36;;;;;;;49.30;15.13;;;;;;;;;;5035518;28;20076;-53
2022/03/31 07:09:03;;;;;;;41.15;16.95;;;;;;;;;;5035711;28;20151;-50
2022/03/31 07:11:29;;;;;;;43.47;10.70;;;;;;;;;;5035026;28;20036;-52
2022/03/31 07:13:55;;;;;;;38.70;10.13;;;;;;;;;;5035367;28;20017;-51
2022/03/31 07:16:23;;;;;;;32.40;8.30;;;;;;;;;;5035548;28;20581;-52
2022/03/31 07:18:49;;;;;;;28.05;7.57;;;;;;;;;;5035277;28;20037;-56
2022/03/31 07:21:15;;;;;;;36.40;7.85;;;;;;;;;;5035832;28;20037;-57
2022/03/31 07:23:41;;;;;;;32.25;8.00;;;;;;;;;;5034490;28;20021;-52
2022/03/31 07:26:08;;;;;;;28.25;7.88;;;;;;;;;;5035112;28;20104;-51
2022/03/31 07:28:34;;;;;;;37.83;8.63;;;;;;;;;;5035668;28;20581;-51
2022/03/31 07:31:00;;;;;;;37.67;8.95;;;;;;;;;;5034961;28;20057;-53
2022/03/31 07:33:26;;;;;;;29.27;8.02;;;;;;;;;;5034982;28;20504;-55
2022/03/31 07:35:52;;;;;;;29.13;7.65;;;;;;;;;;5035568;28;20407;-54
2022/03/31 07:38:19;;;;;;;36.63;8.65;;;;;;;;;;5035177;28;20108;-55
2022/03/31 07:40:46;;;;;;;38.55;8.90;;;;;;;;;;5034796;28;20026;-54
2022/03/31 07:43:12;;;;;;;46.03;11.57;;;;;;;;;;5035018;28;20028;-54
2022/03/31 07:45:39;;;;;;;37.80;11.43;;;;;;;;;;5034803;28;20462;-51
2022/03/31 07:48:07;;;;;;;44.38;12.18;;;;;;;;;;5034759;28;20076;-54
2022/03/31 07:50:34;;;;;;;33.25;8.90;;;;;;;;;;5035364;28;20040;-54
2022/03/31 07:53:01;;;;;;;33.88;8.68;;;;;;;;;;5034534;28;20037;-63
2022/03/31 07:55:27;;;;;;;47.95;14.30;;;;;;;;;;5034549;28;20079;-59
2022/03/31 07:57:54;;;;;;;103.40;41.97;;;;;;;;;;5034581;28;20389;-55
2022/03/31 08:00:20;;;;;;;44.05;17.25;;;;;;;;;;5034478;28;20022;-56
2022/03/31 08:02:48;;;;;;;48.05;21.92;;;;;;;;;;5034627;28;20064;-53
2022/03/31 08:05:18;;;;;;;40.83;13.27;;;;;;;;;;5034886;28;20049;-54
2022/03/31 08:07:44;;;;;;;39.13;9.60;;;;;;;;;;5034496;28;20036;-52
2022/03/31 08:10:11;;;;;;;38.17;12.77;;;;;;;;;;5034472;28;20243;-55
2022/03/31 08:12:39;;;;;;;40.92;8.35;;;;;;;;;;5034069;28;20026;-55
2022/03/31 08:15:05;;;;;;;30.10;7.47;;;;;;;;;;5034504;28;20025;-53
2022/03/31 08:17:32;;;;;;;30.45;8.57;;;;;;;;;;5034351;28;20032;-54
2022/03/31 08:19:58;;;;;;;36.10;9.60;;;;;;;;;;5034411;28;20040;-54
2022/03/31 08:22:26;;;;;;;29.20;8.90;;;;;;;;;;5034391;28;20034;-51
2022/03/31 08:24:53;;;;;;;34.72;8.90;;;;;;;;;;5034834;28;20017;-54
2022/03/31 08:27:19;;;;;;;30.35;7.82;;;;;;;;;;5034176;28;20034;-55
2022/03/31 08:29:45;;;;;;;34.90;9.30;;;;;;;;;;5033782;28;20484;-54
2022/03/31 08:32:13;;;;;;;35.80;10.27;;;;;;;;;;5034407;28;20057;-53
2022/03/31 08:34:39;;;;;;;34.80;10.52;;;;;;;;;;5033894;28;20040;-54
2022/03/31 08:37:05;;;;;;;30.90;8.85;;;;;;;;;;5033627;28;20481;-53
2022/03/31 08:39:31;;;;;;;25.90;8.65;;;;;;;;;;5034077;28;20022;-56
2022/03/31 08:41:57;;;;;;;32.03;8.50;;;;;;;;;;5034006;28;20029;-52
2022/03/31 08:44:23;;;;;;;26.50;8.93;;;;;;;;;;5033644;28;20025;-51
2022/03/31 08:46:50;;;;;;;22.90;7.55;;;;;;;;;;5034455;28;20410;-55
2022/03/31 08:49:16;;;;;;;26.60;7.55;;;;;;;;;;5033577;28;20018;-55
2022/03/31 08:51:43;;;;;;;28.20;9.68;;;;;;;;;;5033498;28;20454;-55
2022/03/31 08:54:10;;;;;;;32.55;9.68;;;;;;;;;;5033863;28;20144;-55
2022/03/31 08:56:37;;;;;;;26.55;9.95;;;;;;;;;;5033463;28;20018;-54
2022/03/31 08:59:03;;;;;;;30.50;8.85;;;;;;;;;;5033430;28;20541;-54
2022/03/31 09:01:32;;;;;;;29.95;8.52;;;;;;;;;;5033487;28;20029;-55
2022/03/31 09:03:58;;;;;;;24.25;6.80;;;;;;;;;;5033053;28;20058;-55
2022/03/31 09:06:27;;;;;;;21.15;7.00;;;;;;;;;;5033593;28;20028;-57
2022/03/31 09:08:55;;;;;;;25.77;7.38;;;;;;;;;;5034422;28;20036;-54
2022/03/31 09:11:30;;;;;;;29.30;8.13;;;;;;;;;;5033160;28;20033;-52
2022/03/31 09:14:04;;;;;;;24.92;7.00;;;;;;;;;;5033640;28;20104;-52
2022/03/31 09:16:34;;;;;;;23.63;6.43;;;;;;;;;;5034121;28;20036;-52
2022/03/31 09:19:05;;;;;;;25.77;6.10;;;;;;;;;;5033435;28;20025;-53
2022/03/31 09:21:31;;;;;;;21.13;5.47;;;;;;;;;;5033645;28;20033;-51
2022/03/31 09:23:58;;;;;;;21.45;5.30;;;;;;;;;;5034069;28;20018;-52
2022/03/31 09:26:31;;;;;;;21.60;6.00;;;;;;;;;;5033174;28;20121;-52
2022/03/31 09:29:10;;;;;;;26.05;6.15;;;;;;;;;;5033264;28;20018;-55
2022/03/31 09:31:36;;;;;;;22.80;6.20;;;;;;;;;;5033132;28;20029;-51
2022/03/31 09:34:02;;;;;;;23.70;7.80;;;;;;;;;;5033232;28;20078;-54
2022/03/31 09:36:28;;;;;;;24.25;5.38;;;;;;;;;;5033181;28;20033;-54
2022/03/31 09:38:58;;;;;;;19.27;5.47;;;;;;;;;;5033259;28;20018;-56
2022/03/31 09:41:27;;;;;;;15.30;4.57;;;;;;;;;;5033045;28;20029;-50
2022/03/31 09:43:54;;;;;;;24.50;6.40;;;;;;;;;;5033791;28;20075;-53
2022/03/31 09:46:33;;;;;;;18.90;5.35;;;;;;;;;;5032634;28;20079;-54
2022/03/31 09:49:00;;;;;;;13.10;5.13;;;;;;;;;;5037965;28;20029;-57
2022/03/31 09:51:26;;;;;;;13.68;4.78;;;;;;;;;;5037139;28;20029;-56
2022/03/31 09:53:53;;;;;;;12.20;4.35;;;;;;;;;;5036812;28;20035;-55
2022/03/31 09:56:26;;;;;;;15.18;4.63;;;;;;;;;;5037084;28;20053;-55
2022/03/31 09:58:56;;;;;;;19.95;5.82;;;;;;;;;;5036812;28;20026;-54
2022/03/31 10:01:23;;;;;;;11.98;4.57;;;;;;;;;;5036718;28;20037;-53
2022/03/31 10:03:49;;;;;;;10.82;3.50;;;;;;;;;;5036781;28;20025;-51
2022/03/31 10:06:16;;;;;;;20.63;5.07;;;;;;;;;;5036608;28;20489;-55
2022/03/31 10:08:44;;;;;;;16.08;3.42;;;;;;;;;;5036915;28;20025;-50
2022/03/31 10:11:14;;;;;;;16.67;4.28;;;;;;;;;;5036735;28;20060;-53
2022/03/31 10:13:43;;;;;;;15.95;4.78;;;;;;;;;;5036521;28;20470;-55
2022/03/31 10:16:13;;;;;;;13.40;3.80;;;;;;;;;;5036728;28;20029;-56
2022/03/31 10:18:40;;;;;;;14.23;3.90;;;;;;;;;;5037255;28;20025;-52
2022/03/31 10:21:07;;;;;;;8.48;3.30;;;;;;;;;;5035993;28;20026;-56
2022/03/31 10:26:36;;;;;;;9.20;4.03;;;;;;;;;;5036550;28;20504;-55
2022/03/31 10:29:09;;;;;;;14.20;3.70;;;;;;;;;;5036233;28;20029;-54
2022/03/31 10:31:39;;;;;;;6.90;3.30;;;;;;;;;;5036736;28;20025;-53
2022/03/31 10:34:06;;;;;;;6.67;1.70;;;;;;;;;;5036928;28;20432;-53
2022/03/31 10:36:38;;;;;;;5.78;1.73;;;;;;;;;;5036323;28;20024;-49
2022/03/31 10:39:05;;;;;;;;;;;;;;;;;;5036381;28;20021;-55
2022/03/31 10:41:38;;;;;;;10.60;2.70;;;;;;;;;;5035910;28;19905;-52
2022/03/31 10:44:25;;;;;;;6.13;2.20;;;;;;;;;;5035951;28;20025;-51
2022/03/31 10:47:09;;;;;;;5.97;2.78;;;;;;;;;;5036287;28;20029;-52
2022/03/31 10:49:36;;;;;;;9.85;3.47;;;;;;;;;;5035471;28;20509;-52
2022/03/31 10:52:17;;;;;;;4.68;2.10;;;;;;;;;;5035716;28;20076;-51
2022/03/31 10:54:44;;;;;;;3.55;1.63;;;;;;;;;;5035907;28;20037;-51
2022/03/31 10:57:14;;;;;;;5.75;1.75;;;;;;;;;;5035311;28;20018;-50
2022/03/31 10:59:42;;;;;;;8.70;2.72;;;;;;;;;;5035715;28;20036;-51
2022/03/31 11:02:12;;;;;;;7.85;2.10;;;;;;;;;;5035248;28;20025;-51
2022/03/31 11:04:52;;;;;;;4.50;2.00;;;;;;;;;;5035540;28;20049;-50
2022/03/31 11:07:20;;;;;;;5.18;2.00;;;;;;;;;;5035463;28;20021;-55
2022/03/31 11:09:47;;;;;;;5.38;2.28;;;;;;;;;;5035406;28;20025;-53
2022/03/31 11:12:23;;;;;;;6.53;2.05;;;;;;;;;;5035679;28;20036;-54
2022/03/31 11:15:00;;;;;;;6.82;1.48;;;;;;;;;;5035352;28;20041;-56
2022/03/31 11:17:27;;;;;;;3.03;1.52;;;;;;;;;;5035256;28;20045;-55
2022/03/31 11:19:53;;;;;;;8.40;1.63;;;;;;;;;;5035231;28;20064;-52
2022/03/31 11:22:23;;;;;;;4.65;1.50;;;;;;;;;;5036330;28;20049;-54
2022/03/31 11:24:54;;;;;;;5.72;2.20;;;;;;;;;;5035465;28;20021;-49
2022/03/31 11:27:36;;;;;;;5.93;2.42;;;;;;;;;;5035287;28;20072;-54
2022/03/31 11:30:03;;;;;;;6.28;2.25;;;;;;;;;;5035294;28;20492;-53
2022/03/31 11:32:31;;;;;;;5.40;2.70;;;;;;;;;;5034983;28;20033;-54
2022/03/31 11:34:58;;;;;;;4.90;1.95;;;;;;;;;;5035230;28;20072;-54
2022/03/31 11:37:24;;;;;;;9.75;1.80;;;;;;;;;;5034841;28;20045;-55
2022/03/31 11:39:51;;;;;;;11.07;1.70;;;;;;;;;;5035469;28;20026;-55
2022/03/31 11:42:17;;;;;;;8.07;1.90;;;;;;;;;;5035232;28;20034;-55
2022/03/31 11:44:43;;;;;;;6.45;1.80;;;;;;;;;;5034976;28;20122;-54
2022/03/31 11:47:18;;;;;;;6.50;1.50;;;;;;;;;;5035047;28;20018;-51
2022/03/31 11:49:45;;;;;;;10.45;1.63;;;;;;;;;;5035624;28;20036;-51
2022/03/31 11:52:11;;;;;;;6.20;2.05;;;;;;;;;;5033197;28;20030;-55
2022/03/31 11:54:41;;;;;;;6.13;1.40;;;;;;;;;;5034998;28;20033;-51
2022/03/31 11:57:08;;;;;;;9.77;1.90;;;;;;;;;;5035006;28;20058;-58
2022/03/31 11:59:34;;;;;;;7.82;1.60;;;;;;;;;;5034869;28;20034;-53
2022/03/31 12:02:01;;;;;;;5.68;1.98;;;;;;;;;;5034649;28;20029;-51
2022/03/31 12:04:29;;;;;;;5.60;2.65;;;;;;;;;;5034502;28;20423;-55
2022/03/31 12:06:57;;;;;;;6.28;2.03;;;;;;;;;;5033961;28;20482;-53
2022/03/31 12:09:26;;;;;;;7.38;2.17;;;;;;;;;;5034238;28;20029;-50
2022/03/31 12:11:55;;;;;;;5.03;1.65;;;;;;;;;;5034354;28;20463;-53
2022/03/31 12:14:22;;;;;;;5.70;1.77;;;;;;;;;;5033969;28;20029;-52
2022/03/31 12:16:55;;;;;;;8.45;1.73;;;;;;;;;;5034729;28;20493;-53
2022/03/31 12:19:21;;;;;;;7.65;1.58;;;;;;;;;;5034435;28;20029;-53
2022/03/31 12:21:49;;;;;;;6.88;1.70;;;;;;;;;;5034470;28;20483;-56
2022/03/31 12:24:15;;;;;;;5.75;1.40;;;;;;;;;;5034340;28;20059;-53
2022/03/31 12:26:56;;;;;;;9.05;2.33;;;;;;;;;;5034156;28;20025;-50
2022/03/31 12:29:23;;;;;;;4.68;1.52;;;;;;;;;;5034248;28;20463;-55
2022/03/31 12:32:06;;;;;;;7.20;1.80;;;;;;;;;;5032998;28;20095;-52
2022/03/31 12:34:35;;;;;;;7.03;1.90;;;;;;;;;;5033823;28;20045;-57
2022/03/31 12:37:02;;;;;;;3.80;1.40;;;;;;;;;;5034706;28;20339;-52
2022/03/31 12:39:28;;;;;;;7.70;1.50;;;;;;;;;;5034042;28;20549;-55
2022/03/31 12:41:56;;;;;;;5.07;1.88;;;;;;;;;;5033706;28;20026;-51
2022/03/31 12:44:24;;;;;;;10.23;2.55;;;;;;;;;;5034256;28;20080;-52
2022/03/31 12:46:59;;;;;;;17.40;3.45;;;;;;;;;;5033857;28;20028;-52
2022/03/31 12:49:26;;;;;;;5.72;1.35;;;;;;;;;;5032912;28;20026;-50
2022/03/31 12:52:00;;;;;;;7.05;1.15;;;;;;;;;;5034390;28;20086;-49
2022/03/31 12:54:32;;;;;;;6.32;1.65;;;;;;;;;;5033909;28;20162;-52
2022/03/31 12:57:05;;;;;;;4.47;1.40;;;;;;;;;;5033568;28;20386;-52
2022/03/31 12:59:33;;;;;;;9.55;1.27;;;;;;;;;;5033802;28;20436;-51
2022/03/31 13:02:08;;;;;;;4.97;1.70;;;;;;;;;;5033436;28;20370;-48
2022/03/31 13:04:35;;;;;;;8.57;2.17;;;;;;;;;;5033396;28;20047;-52
2022/03/31 13:07:04;;;;;;;14.63;1.98;;;;;;;;;;5033737;28;20028;-48
2022/03/31 13:09:31;;;;;;;8.55;1.58;;;;;;;;;;5033288;28;20017;-49
2022/03/31 13:11:57;;;;;;;9.18;2.78;;;;;;;;;;5033681;28;20040;-47
2022/03/31 13:14:24;;;;;;;7.68;2.17;;;;;;;;;;5033636;28;20339;-47
2022/03/31 13:16:50;;;;;;;7.63;1.92;;;;;;;;;;5033250;28;20037;-51
2022/03/31 13:19:16;;;;;;;8.43;2.03;;;;;;;;;;5033572;28;20095;-51
2022/03/31 13:21:43;;;;;;;4.13;1.70;;;;;;;;;;5034260;28;20505;-47
2022/03/31 13:24:09;;;;;;;7.47;2.13;;;;;;;;;;5037204;28;20079;-50
2022/03/31 13:26:36;;;;;;;9.18;2.47;;;;;;;;;;5037395;28;20018;-49
2022/03/31 13:29:03;;;;;;;13.60;2.47;;;;;;;;;;5037597;28;20029;-52
2022/03/31 13:31:29;;;;;;;8.80;2.75;;;;;;;;;;5036950;28;20026;-52
2022/03/31 13:33:55;;;;;;;11.52;2.20;;;;;;;;;;5037269;28;20025;-52
2022/03/31 13:36:22;;;;;;;15.15;3.05;;;;;;;;;;5036641;28;20021;-53
2022/03/31 13:38:48;;;;;;;19.10;3.67;;;;;;;;;;5036227;28;20494;-52
2022/03/31 13:41:14;;;;;;;10.73;2.55;;;;;;;;;;5036145;28;20033;-54
2022/03/31 13:43:40;;;;;;;14.35;2.83;;;;;;;;;;5036624;28;20071;-49
2022/03/31 13:46:07;;;;;;;11.88;3.25;;;;;;;;;;5037189;28;20104;-48
2022/03/31 13:48:33;;;;;;;10.02;2.70;;;;;;;;;;5037215;28;20014;-49
2022/03/31 13:50:59;;;;;;;14.25;3.00;;;;;;;;;;5036323;28;20485;-50
2022/03/31 13:53:45;;;;;;;16.15;2.55;;;;;;;;;;5036591;28;20109;-51
2022/03/31 13:56:14;;;;;;;23.40;2.92;;;;;;;;;;5035742;28;20403;-48
2022/03/31 14:01:26;;;;;;;24.05;3.08;;;;;;;;;;5036369;28;20408;-50
2022/03/31 14:03:55;;;;;;;22.38;3.28;;;;;;;;;;5037014;28;20134;-50
2022/03/31 14:06:21;;;;;;;24.23;2.75;;;;;;;;;;5035084;28;20022;-47
2022/03/31 14:08:48;;;;;;;17.60;2.63;;;;;;;;;;5036755;28;20094;-48
2022/03/31 14:11:14;;;;;;;16.42;3.15;;;;;;;;;;5035484;28;20040;-52
2022/03/31 14:13:41;;;;;;;21.48;4.07;;;;;;;;;;5036243;28;20160;-50
2022/03/31 14:16:08;;;;;;;33.20;5.82;;;;;;;;;;5036796;28;20033;-55
2022/03/31 14:18:36;;;;;;;32.08;5.50;;;;;;;;;;5035005;28;20056;-52
2022/03/31 14:21:02;;;;;;;33.40;7.00;;;;;;;;;;5035539;28;20190;-53
2022/03/31 14:23:29;;;;;;;37.88;6.70;;;;;;;;;;5035341;28;20061;-52
2022/03/31 14:25:58;;;;;;;29.48;4.00;;;;;;;;;;5035878;28;20022;-53
2022/03/31 14:28:37;;;;;;;31.55;5.05;;;;;;;;;;5035403;28;20094;-52
2022/03/31 14:31:05;;;;;;;35.08;5.00;;;;;;;;;;5036130;28;20025;-53
2022/03/31 14:33:31;;;;;;;31.42;4.85;;;;;;;;;;5035067;28;20038;-50
2022/03/31 14:35:58;;;;;;;39.05;5.25;;;;;;;;;;5034795;28;20057;-52
2022/03/31 14:38:25;;;;;;;30.77;5.10;;;;;;;;;;5035058;28;20079;-52
2022/03/31 14:40:53;;;;;;;33.10;5.10;;;;;;;;;;5034546;28;20026;-52